sensor_id;sensor_type;location;lat;lon;timestamp;P1;durP1;ratioP1;P2;durP2;ratioP2
35364;SDS011;21464;48.112;11.530;2022-12-07T00:03:52;11.03;;;9.90;;
35364;SDS011;21464;48.112;11.530;2022-12-07T00:06:19;10.63;;;9.40;;
35364;SDS011;21464;48.112;11.530;2022-12-07T00:08:46;10.37;;;9.37;;
35364;SDS011;21464;48.112;11.530;2022-12-07T00:11:14;11.50;;;9.63;;
35364;SDS011;21464;48.112;11.530;2022-12-07T00:13:42;11.43;;;9.07;;
35364;SDS011;21464;48.112;11.530;2022-12-07T00:16:09;10.30;;;9.10;;
35364;SDS011;21464;48.112;11.530;2022-12-07T00:18:40;11.13;;;9.93;;
35364;SDS011;21464;48.112;11.530;2022-12-07T00:21:09;10.70;;;9.00;;
35364;SDS011;21464;48.112;11.530;2022-12-07T00:23:37;10.80;;;9.70;;
35364;SDS011;21464;48.112;11.530;2022-12-07T00:26:04;11.13;;;9.67;;
35364;SDS011;21464;48.112;11.530;2022-12-07T00:28:33;10.90;;;9.53;;
35364;SDS011;21464;48.112;11.530;2022-12-07T00:31:00;10.50;;;8.77;;
35364;SDS011;21464;48.112;11.530;2022-12-07T00:33:31;10.63;;;9.07;;
35364;SDS011;21464;48.112;11.530;2022-12-07T00:35:58;11.27;;;8.90;;
35364;SDS011;21464;48.112;11.530;2022-12-07T00:38:26;10.50;;;9.47;;
35364;SDS011;21464;48.112;11.530;2022-12-07T00:40:58;11.17;;;9.63;;
35364;SDS011;21464;48.112;11.530;2022-12-07T00:43:25;10.27;;;9.13;;
35364;SDS011;21464;48.112;11.530;2022-12-07T00:45:52;8.80;;;7.90;;
35364;SDS011;21464;48.112;11.530;2022-12-07T00:48:19;10.57;;;9.47;;
35364;SDS011;21464;48.112;11.530;2022-12-07T00:50:45;11.33;;;9.23;;
35364;SDS011;21464;48.112;11.530;2022-12-07T00:53:12;9.30;;;8.40;;
35364;SDS011;21464;48.112;11.530;2022-12-07T00:55:38;10.60;;;9.00;;
35364;SDS011;21464;48.112;11.530;2022-12-07T00:58:05;10.27;;;9.13;;
35364;SDS011;21464;48.112;11.530;2022-12-07T01:00:31;11.23;;;9.40;;
35364;SDS011;21464;48.112;11.530;2022-12-07T01:02:59;10.07;;;9.07;;
35364;SDS011;21464;48.112;11.530;2022-12-07T01:05:25;10.10;;;8.60;;
35364;SDS011;21464;48.112;11.530;2022-12-07T01:07:51;11.20;;;9.03;;
35364;SDS011;21464;48.112;11.530;2022-12-07T01:10:17;10.17;;;9.17;;
35364;SDS011;21464;48.112;11.530;2022-12-07T01:12:44;12.10;;;9.53;;
35364;SDS011;21464;48.112;11.530;2022-12-07T01:15:10;9.50;;;8.47;;
35364;SDS011;21464;48.112;11.530;2022-12-07T01:17:36;9.23;;;8.37;;
35364;SDS011;21464;48.112;11.530;2022-12-07T01:20:03;9.97;;;8.87;;
35364;SDS011;21464;48.112;11.530;2022-12-07T01:22:29;9.70;;;8.70;;
35364;SDS011;21464;48.112;11.530;2022-12-07T01:24:56;11.33;;;9.70;;
35364;SDS011;21464;48.112;11.530;2022-12-07T01:27:22;9.70;;;8.70;;
35364;SDS011;21464;48.112;11.530;2022-12-07T01:29:48;10.67;;;9.13;;
35364;SDS011;21464;48.112;11.530;2022-12-07T01:32:15;10.73;;;9.17;;
35364;SDS011;21464;48.112;11.530;2022-12-07T01:34:41;10.27;;;9.27;;
35364;SDS011;21464;48.112;11.530;2022-12-07T01:37:07;10.97;;;8.43;;
35364;SDS011;21464;48.112;11.530;2022-12-07T01:39:33;11.13;;;9.47;;
35364;SDS011;21464;48.112;11.530;2022-12-07T01:42:00;10.30;;;9.13;;
35364;SDS011;21464;48.112;11.530;2022-12-07T01:44:27;10.23;;;9.17;;
35364;SDS011;21464;48.112;11.530;2022-12-07T01:46:59;11.77;;;8.90;;
35364;SDS011;21464;48.112;11.530;2022-12-07T01:49:37;10.77;;;8.87;;
35364;SDS011;21464;48.112;11.530;2022-12-07T01:54:40;11.03;;;8.93;;
35364;SDS011;21464;48.112;11.530;2022-12-07T01:57:08;12.03;;;9.03;;
35364;SDS011;21464;48.112;11.530;2022-12-07T01:59:34;10.83;;;9.60;;
35364;SDS011;21464;48.112;11.530;2022-12-07T02:02:01;10.53;;;9.20;;
35364;SDS011;21464;48.112;11.530;2022-12-07T02:04:28;11.97;;;9.70;;
35364;SDS011;21464;48.112;11.530;2022-12-07T02:06:55;10.37;;;9.27;;
35364;SDS011;21464;48.112;11.530;2022-12-07T02:09:21;10.63;;;9.33;;
35364;SDS011;21464;48.112;11.530;2022-12-07T02:11:48;11.80;;;10.10;;
35364;SDS011;21464;48.112;11.530;2022-12-07T02:14:14;12.87;;;10.07;;
35364;SDS011;21464;48.112;11.530;2022-12-07T02:16:48;11.63;;;9.53;;
35364;SDS011;21464;48.112;11.530;2022-12-07T02:21:58;10.70;;;9.57;;
35364;SDS011;21464;48.112;11.530;2022-12-07T02:29:58;10.13;;;8.47;;
35364;SDS011;21464;48.112;11.530;2022-12-07T02:38:01;12.37;;;10.03;;
35364;SDS011;21464;48.112;11.530;2022-12-07T02:40:39;12.00;;;9.27;;
35364;SDS011;21464;48.112;11.530;2022-12-07T02:43:09;11.13;;;10.03;;
35364;SDS011;21464;48.112;11.530;2022-12-07T02:45:38;12.23;;;10.17;;
35364;SDS011;21464;48.112;11.530;2022-12-07T02:48:06;10.03;;;9.00;;
35364;SDS011;21464;48.112;11.530;2022-12-07T02:50:34;11.00;;;9.40;;
35364;SDS011;21464;48.112;11.530;2022-12-07T02:53:00;11.40;;;9.53;;
35364;SDS011;21464;48.112;11.530;2022-12-07T02:55:28;11.77;;;10.23;;
35364;SDS011;21464;48.112;11.530;2022-12-07T03:00:48;12.43;;;9.90;;
35364;SDS011;21464;48.112;11.530;2022-12-07T03:03:20;12.10;;;9.30;;
35364;SDS011;21464;48.112;11.530;2022-12-07T03:08:21;10.83;;;9.70;;
35364;SDS011;21464;48.112;11.530;2022-12-07T03:13:26;10.93;;;9.13;;
35364;SDS011;21464;48.112;11.530;2022-12-07T03:18:33;11.73;;;9.40;;
35364;SDS011;21464;48.112;11.530;2022-12-07T03:21:05;11.23;;;10.03;;
35364;SDS011;21464;48.112;11.530;2022-12-07T03:23:34;12.43;;;9.90;;
35364;SDS011;21464;48.112;11.530;2022-12-07T03:26:03;10.87;;;9.77;;
35364;SDS011;21464;48.112;11.530;2022-12-07T03:28:35;10.80;;;9.50;;
35364;SDS011;21464;48.112;11.530;2022-12-07T03:31:14;11.87;;;9.90;;
35364;SDS011;21464;48.112;11.530;2022-12-07T03:33:54;11.47;;;9.87;;
35364;SDS011;21464;48.112;11.530;2022-12-07T03:36:37;11.73;;;9.60;;
35364;SDS011;21464;48.112;11.530;2022-12-07T03:39:22;10.90;;;9.37;;
35364;SDS011;21464;48.112;11.530;2022-12-07T03:41:52;9.70;;;8.70;;
35364;SDS011;21464;48.112;11.530;2022-12-07T03:44:19;12.27;;;9.73;;
35364;SDS011;21464;48.112;11.530;2022-12-07T03:49:34;11.17;;;9.97;;
35364;SDS011;21464;48.112;11.530;2022-12-07T03:54:41;13.80;;;11.37;;
35364;SDS011;21464;48.112;11.530;2022-12-07T03:57:12;13.97;;;11.00;;
35364;SDS011;21464;48.112;11.530;2022-12-07T03:59:39;13.37;;;11.40;;
35364;SDS011;21464;48.112;11.530;2022-12-07T04:02:06;13.47;;;10.83;;
35364;SDS011;21464;48.112;11.530;2022-12-07T04:04:33;13.83;;;11.03;;
35364;SDS011;21464;48.112;11.530;2022-12-07T04:07:06;13.00;;;10.37;;
35364;SDS011;21464;48.112;11.530;2022-12-07T04:09:33;12.43;;;10.70;;
35364;SDS011;21464;48.112;11.530;2022-12-07T04:11:59;14.30;;;10.97;;
35364;SDS011;21464;48.112;11.530;2022-12-07T04:14:25;12.27;;;10.53;;
35364;SDS011;21464;48.112;11.530;2022-12-07T04:16:56;12.40;;;10.80;;
35364;SDS011;21464;48.112;11.530;2022-12-07T04:19:25;13.77;;;10.87;;
35364;SDS011;21464;48.112;11.530;2022-12-07T04:21:53;13.47;;;11.40;;
35364;SDS011;21464;48.112;11.530;2022-12-07T04:24:20;12.60;;;10.60;;
35364;SDS011;21464;48.112;11.530;2022-12-07T04:26:46;14.43;;;11.67;;
35364;SDS011;21464;48.112;11.530;2022-12-07T04:29:13;12.90;;;11.00;;
35364;SDS011;21464;48.112;11.530;2022-12-07T04:31:40;15.00;;;11.53;;
35364;SDS011;21464;48.112;11.530;2022-12-07T04:34:06;15.17;;;12.10;;
35364;SDS011;21464;48.112;11.530;2022-12-07T04:36:33;12.30;;;10.90;;
35364;SDS011;21464;48.112;11.530;2022-12-07T04:38:59;14.73;;;11.60;;
35364;SDS011;21464;48.112;11.530;2022-12-07T04:41:26;14.50;;;11.83;;
35364;SDS011;21464;48.112;11.530;2022-12-07T04:43:55;14.07;;;11.33;;
35364;SDS011;21464;48.112;11.530;2022-12-07T04:46:23;16.33;;;12.53;;
35364;SDS011;21464;48.112;11.530;2022-12-07T04:48:50;13.77;;;11.77;;
35364;SDS011;21464;48.112;11.530;2022-12-07T04:51:18;14.83;;;12.37;;
35364;SDS011;21464;48.112;11.530;2022-12-07T04:53:46;16.63;;;12.17;;
35364;SDS011;21464;48.112;11.530;2022-12-07T04:56:12;13.87;;;11.53;;
35364;SDS011;21464;48.112;11.530;2022-12-07T04:58:39;15.60;;;12.53;;
35364;SDS011;21464;48.112;11.530;2022-12-07T05:01:06;14.60;;;11.90;;
35364;SDS011;21464;48.112;11.530;2022-12-07T05:03:32;15.43;;;12.33;;
35364;SDS011;21464;48.112;11.530;2022-12-07T05:05:59;14.93;;;11.90;;
35364;SDS011;21464;48.112;11.530;2022-12-07T05:08:25;15.53;;;12.40;;
35364;SDS011;21464;48.112;11.530;2022-12-07T05:10:51;16.07;;;12.40;;
35364;SDS011;21464;48.112;11.530;2022-12-07T05:13:17;14.30;;;11.47;;
35364;SDS011;21464;48.112;11.530;2022-12-07T05:15:43;14.57;;;11.70;;
35364;SDS011;21464;48.112;11.530;2022-12-07T05:18:11;13.60;;;11.37;;
35364;SDS011;21464;48.112;11.530;2022-12-07T05:20:41;15.97;;;12.77;;
35364;SDS011;21464;48.112;11.530;2022-12-07T05:23:07;17.40;;;12.83;;
35364;SDS011;21464;48.112;11.530;2022-12-07T05:25:34;12.93;;;11.40;;
35364;SDS011;21464;48.112;11.530;2022-12-07T05:28:00;15.77;;;11.97;;
35364;SDS011;21464;48.112;11.530;2022-12-07T05:30:26;15.17;;;11.63;;
35364;SDS011;21464;48.112;11.530;2022-12-07T05:32:53;13.23;;;11.63;;
35364;SDS011;21464;48.112;11.530;2022-12-07T05:35:19;13.07;;;10.93;;
35364;SDS011;21464;48.112;11.530;2022-12-07T05:37:45;12.60;;;10.77;;
35364;SDS011;21464;48.112;11.530;2022-12-07T05:40:12;12.57;;;10.33;;
35364;SDS011;21464;48.112;11.530;2022-12-07T05:42:39;13.47;;;12.03;;
35364;SDS011;21464;48.112;11.530;2022-12-07T05:45:06;14.43;;;12.10;;
35364;SDS011;21464;48.112;11.530;2022-12-07T05:47:33;13.67;;;11.57;;
35364;SDS011;21464;48.112;11.530;2022-12-07T05:49:59;13.70;;;11.03;;
35364;SDS011;21464;48.112;11.530;2022-12-07T05:52:25;13.80;;;11.47;;
35364;SDS011;21464;48.112;11.530;2022-12-07T05:54:52;15.30;;;11.63;;
35364;SDS011;21464;48.112;11.530;2022-12-07T05:57:18;14.43;;;12.10;;
35364;SDS011;21464;48.112;11.530;2022-12-07T05:59:44;15.73;;;12.50;;
35364;SDS011;21464;48.112;11.530;2022-12-07T06:02:12;14.90;;;12.53;;
35364;SDS011;21464;48.112;11.530;2022-12-07T06:04:41;14.20;;;12.70;;
35364;SDS011;21464;48.112;11.530;2022-12-07T06:07:12;17.07;;;14.07;;
35364;SDS011;21464;48.112;11.530;2022-12-07T06:09:39;15.30;;;12.23;;
35364;SDS011;21464;48.112;11.530;2022-12-07T06:12:05;16.17;;;13.73;;
35364;SDS011;21464;48.112;11.530;2022-12-07T06:14:50;14.63;;;11.20;;
35364;SDS011;21464;48.112;11.530;2022-12-07T06:17:17;17.17;;;11.93;;
35364;SDS011;21464;48.112;11.530;2022-12-07T06:19:43;18.33;;;13.80;;
35364;SDS011;21464;48.112;11.530;2022-12-07T06:22:09;15.80;;;13.23;;
35364;SDS011;21464;48.112;11.530;2022-12-07T06:24:37;17.27;;;13.73;;
35364;SDS011;21464;48.112;11.530;2022-12-07T06:27:04;19.70;;;15.27;;
35364;SDS011;21464;48.112;11.530;2022-12-07T06:29:31;16.30;;;12.33;;
35364;SDS011;21464;48.112;11.530;2022-12-07T06:31:58;15.17;;;12.13;;
35364;SDS011;21464;48.112;11.530;2022-12-07T06:34:25;15.20;;;12.90;;
35364;SDS011;21464;48.112;11.530;2022-12-07T06:36:52;13.63;;;12.13;;
35364;SDS011;21464;48.112;11.530;2022-12-07T06:39:21;15.33;;;12.90;;
35364;SDS011;21464;48.112;11.530;2022-12-07T06:41:48;16.50;;;12.57;;
35364;SDS011;21464;48.112;11.530;2022-12-07T06:44:15;16.57;;;13.30;;
35364;SDS011;21464;48.112;11.530;2022-12-07T06:46:41;14.93;;;12.40;;
35364;SDS011;21464;48.112;11.530;2022-12-07T06:49:07;15.30;;;12.80;;
35364;SDS011;21464;48.112;11.530;2022-12-07T06:51:34;18.07;;;13.63;;
35364;SDS011;21464;48.112;11.530;2022-12-07T06:54:07;14.43;;;12.33;;
35364;SDS011;21464;48.112;11.530;2022-12-07T06:56:34;16.87;;;12.67;;
35364;SDS011;21464;48.112;11.530;2022-12-07T06:59:00;14.63;;;12.50;;
35364;SDS011;21464;48.112;11.530;2022-12-07T07:01:26;16.00;;;12.47;;
35364;SDS011;21464;48.112;11.530;2022-12-07T07:03:53;17.40;;;12.00;;
35364;SDS011;21464;48.112;11.530;2022-12-07T07:06:19;15.37;;;12.07;;
35364;SDS011;21464;48.112;11.530;2022-12-07T07:08:45;14.53;;;12.33;;
35364;SDS011;21464;48.112;11.530;2022-12-07T07:11:12;15.20;;;12.47;;
35364;SDS011;21464;48.112;11.530;2022-12-07T07:13:38;18.43;;;12.60;;
35364;SDS011;21464;48.112;11.530;2022-12-07T07:16:05;14.40;;;11.50;;
35364;SDS011;21464;48.112;11.530;2022-12-07T07:18:32;14.33;;;12.43;;
35364;SDS011;21464;48.112;11.530;2022-12-07T07:20:58;15.83;;;12.37;;
35364;SDS011;21464;48.112;11.530;2022-12-07T07:23:24;15.63;;;12.27;;
35364;SDS011;21464;48.112;11.530;2022-12-07T07:25:50;14.23;;;12.07;;
35364;SDS011;21464;48.112;11.530;2022-12-07T07:28:17;15.30;;;12.40;;
35364;SDS011;21464;48.112;11.530;2022-12-07T07:30:43;15.77;;;13.17;;
35364;SDS011;21464;48.112;11.530;2022-12-07T07:33:10;14.77;;;12.07;;
35364;SDS011;21464;48.112;11.530;2022-12-07T07:35:37;14.77;;;12.13;;
35364;SDS011;21464;48.112;11.530;2022-12-07T07:38:04;16.63;;;13.30;;
35364;SDS011;21464;48.112;11.530;2022-12-07T07:40:31;15.60;;;12.87;;
35364;SDS011;21464;48.112;11.530;2022-12-07T07:42:57;14.47;;;11.83;;
35364;SDS011;21464;48.112;11.530;2022-12-07T07:45:24;16.10;;;12.83;;
35364;SDS011;21464;48.112;11.530;2022-12-07T07:47:51;14.83;;;11.93;;
35364;SDS011;21464;48.112;11.530;2022-12-07T07:50:18;15.13;;;12.50;;
35364;SDS011;21464;48.112;11.530;2022-12-07T07:52:44;16.90;;;13.07;;
35364;SDS011;21464;48.112;11.530;2022-12-07T07:55:11;16.30;;;12.57;;
35364;SDS011;21464;48.112;11.530;2022-12-07T07:57:38;16.33;;;12.43;;
35364;SDS011;21464;48.112;11.530;2022-12-07T08:00:06;18.23;;;14.17;;
35364;SDS011;21464;48.112;11.530;2022-12-07T08:02:41;15.27;;;12.70;;
35364;SDS011;21464;48.112;11.530;2022-12-07T08:05:09;20.00;;;14.23;;
35364;SDS011;21464;48.112;11.530;2022-12-07T08:07:36;17.13;;;13.10;;
35364;SDS011;21464;48.112;11.530;2022-12-07T08:10:02;19.97;;;13.63;;
35364;SDS011;21464;48.112;11.530;2022-12-07T08:12:29;17.43;;;12.73;;
35364;SDS011;21464;48.112;11.530;2022-12-07T08:14:55;17.77;;;13.07;;
35364;SDS011;21464;48.112;11.530;2022-12-07T08:17:22;18.87;;;14.00;;
35364;SDS011;21464;48.112;11.530;2022-12-07T08:19:48;16.20;;;12.60;;
35364;SDS011;21464;48.112;11.530;2022-12-07T08:22:14;16.93;;;13.23;;
35364;SDS011;21464;48.112;11.530;2022-12-07T08:24:40;17.97;;;14.40;;
35364;SDS011;21464;48.112;11.530;2022-12-07T08:27:06;16.90;;;12.80;;
35364;SDS011;21464;48.112;11.530;2022-12-07T08:29:33;17.77;;;13.03;;
35364;SDS011;21464;48.112;11.530;2022-12-07T08:32:02;16.63;;;13.50;;
35364;SDS011;21464;48.112;11.530;2022-12-07T08:34:32;15.80;;;13.10;;
35364;SDS011;21464;48.112;11.530;2022-12-07T08:36:58;15.97;;;13.17;;
35364;SDS011;21464;48.112;11.530;2022-12-07T08:39:24;18.07;;;14.27;;
35364;SDS011;21464;48.112;11.530;2022-12-07T08:41:50;14.57;;;12.97;;
35364;SDS011;21464;48.112;11.530;2022-12-07T08:44:17;18.30;;;14.43;;
35364;SDS011;21464;48.112;11.530;2022-12-07T08:46:47;17.67;;;13.90;;
35364;SDS011;21464;48.112;11.530;2022-12-07T08:49:21;18.60;;;13.40;;
35364;SDS011;21464;48.112;11.530;2022-12-07T08:52:18;16.03;;;13.27;;
35364;SDS011;21464;48.112;11.530;2022-12-07T08:54:44;14.77;;;13.20;;
35364;SDS011;21464;48.112;11.530;2022-12-07T08:57:11;18.97;;;15.10;;
35364;SDS011;21464;48.112;11.530;2022-12-07T08:59:38;15.17;;;13.13;;
35364;SDS011;21464;48.112;11.530;2022-12-07T09:02:04;18.53;;;14.27;;
35364;SDS011;21464;48.112;11.530;2022-12-07T09:04:31;15.97;;;12.87;;
35364;SDS011;21464;48.112;11.530;2022-12-07T09:06:58;16.73;;;13.80;;
35364;SDS011;21464;48.112;11.530;2022-12-07T09:09:24;15.60;;;13.53;;
35364;SDS011;21464;48.112;11.530;2022-12-07T09:11:51;15.17;;;12.80;;
35364;SDS011;21464;48.112;11.530;2022-12-07T09:14:17;14.47;;;11.80;;
35364;SDS011;21464;48.112;11.530;2022-12-07T09:16:44;15.50;;;12.20;;
35364;SDS011;21464;48.112;11.530;2022-12-07T09:19:10;17.27;;;12.50;;
35364;SDS011;21464;48.112;11.530;2022-12-07T09:21:37;16.07;;;12.90;;
35364;SDS011;21464;48.112;11.530;2022-12-07T09:24:03;15.53;;;12.30;;
35364;SDS011;21464;48.112;11.530;2022-12-07T09:26:29;13.27;;;11.80;;
35364;SDS011;21464;48.112;11.530;2022-12-07T09:28:56;15.50;;;12.37;;
35364;SDS011;21464;48.112;11.530;2022-12-07T09:31:22;12.97;;;11.60;;
35364;SDS011;21464;48.112;11.530;2022-12-07T09:33:53;14.03;;;12.07;;
35364;SDS011;21464;48.112;11.530;2022-12-07T09:36:23;28.27;;;19.77;;
35364;SDS011;21464;48.112;11.530;2022-12-07T09:38:49;15.87;;;13.20;;
35364;SDS011;21464;48.112;11.530;2022-12-07T09:41:16;19.83;;;15.00;;
35364;SDS011;21464;48.112;11.530;2022-12-07T09:43:42;23.03;;;16.33;;
35364;SDS011;21464;48.112;11.530;2022-12-07T09:46:10;14.83;;;11.57;;
35364;SDS011;21464;48.112;11.530;2022-12-07T09:48:40;16.57;;;12.43;;
35364;SDS011;21464;48.112;11.530;2022-12-07T09:51:18;18.70;;;13.03;;
35364;SDS011;21464;48.112;11.530;2022-12-07T09:53:46;14.90;;;11.60;;
35364;SDS011;21464;48.112;11.530;2022-12-07T09:56:14;13.27;;;11.70;;
35364;SDS011;21464;48.112;11.530;2022-12-07T09:58:41;15.40;;;11.63;;
35364;SDS011;21464;48.112;11.530;2022-12-07T10:06:32;10.77;;;9.67;;
35364;SDS011;21464;48.112;11.530;2022-12-07T10:08:58;12.27;;;9.50;;
35364;SDS011;21464;48.112;11.530;2022-12-07T10:11:24;13.37;;;10.20;;
35364;SDS011;21464;48.112;11.530;2022-12-07T10:13:53;13.80;;;10.80;;
35364;SDS011;21464;48.112;11.530;2022-12-07T10:16:39;12.23;;;10.27;;
35364;SDS011;21464;48.112;11.530;2022-12-07T10:24:28;13.30;;;10.00;;
35364;SDS011;21464;48.112;11.530;2022-12-07T10:26:54;10.70;;;8.80;;
35364;SDS011;21464;48.112;11.530;2022-12-07T10:29:28;11.47;;;9.00;;
35364;SDS011;21464;48.112;11.530;2022-12-07T10:31:59;11.17;;;9.73;;
35364;SDS011;21464;48.112;11.530;2022-12-07T10:34:32;11.67;;;9.17;;
35364;SDS011;21464;48.112;11.530;2022-12-07T10:39:55;7.83;;;7.00;;
35364;SDS011;21464;48.112;11.530;2022-12-07T10:42:23;9.07;;;7.87;;
35364;SDS011;21464;48.112;11.530;2022-12-07T10:44:50;10.07;;;7.63;;
35364;SDS011;21464;48.112;11.530;2022-12-07T10:47:36;10.83;;;8.10;;
35364;SDS011;21464;48.112;11.530;2022-12-07T10:58:36;11.13;;;7.80;;
35364;SDS011;21464;48.112;11.530;2022-12-07T11:17:26;8.00;;;7.20;;
35364;SDS011;21464;48.112;11.530;2022-12-07T11:20:02;6.50;;;5.90;;
35364;SDS011;21464;48.112;11.530;2022-12-07T11:33:29;6.90;;;5.77;;
35364;SDS011;21464;48.112;11.530;2022-12-07T11:41:27;8.43;;;6.97;;
35364;SDS011;21464;48.112;11.530;2022-12-07T11:44:11;5.70;;;5.20;;
35364;SDS011;21464;48.112;11.530;2022-12-07T11:46:50;6.07;;;5.40;;
35364;SDS011;21464;48.112;11.530;2022-12-07T11:51:57;6.97;;;6.27;;
35364;SDS011;21464;48.112;11.530;2022-12-07T11:54:29;7.27;;;5.50;;
35364;SDS011;21464;48.112;11.530;2022-12-07T11:57:07;8.00;;;6.80;;
35364;SDS011;21464;48.112;11.530;2022-12-07T11:59:39;7.20;;;5.97;;
35364;SDS011;21464;48.112;11.530;2022-12-07T12:02:13;6.20;;;5.60;;
35364;SDS011;21464;48.112;11.530;2022-12-07T12:07:25;6.80;;;6.20;;
35364;SDS011;21464;48.112;11.530;2022-12-07T12:10:04;6.63;;;6.03;;
35364;SDS011;21464;48.112;11.530;2022-12-07T12:13:11;7.10;;;6.40;;
35364;SDS011;21464;48.112;11.530;2022-12-07T12:15:31;6.75;;;6.13;;
35364;SDS011;21464;48.112;11.530;2022-12-07T12:20:48;7.82;;;6.97;;
35364;SDS011;21464;48.112;11.530;2022-12-07T12:23:22;7.78;;;7.00;;
35364;SDS011;21464;48.112;11.530;2022-12-07T12:26:00;7.78;;;6.78;;
35364;SDS011;21464;48.112;11.530;2022-12-07T12:33:46;8.30;;;7.20;;
35364;SDS011;21464;48.112;11.530;2022-12-07T12:46:57;9.30;;;7.90;;
35364;SDS011;21464;48.112;11.530;2022-12-07T12:54:27;8.53;;;7.63;;
35364;SDS011;21464;48.112;11.530;2022-12-07T13:07:47;10.67;;;8.40;;
35364;SDS011;21464;48.112;11.530;2022-12-07T13:15:37;9.80;;;8.13;;
35364;SDS011;21464;48.112;11.530;2022-12-07T13:18:24;9.80;;;8.03;;
35364;SDS011;21464;48.112;11.530;2022-12-07T13:23:37;9.40;;;8.40;;
35364;SDS011;21464;48.112;11.530;2022-12-07T13:26:22;8.47;;;7.53;;
35364;SDS011;21464;48.112;11.530;2022-12-07T13:31:34;9.17;;;7.60;;
35364;SDS011;21464;48.112;11.530;2022-12-07T13:34:02;8.33;;;7.40;;
35364;SDS011;21464;48.112;11.530;2022-12-07T13:36:31;9.27;;;7.93;;
35364;SDS011;21464;48.112;11.530;2022-12-07T13:41:43;11.83;;;9.27;;
35364;SDS011;21464;48.112;11.530;2022-12-07T13:44:14;9.27;;;8.10;;
35364;SDS011;21464;48.112;11.530;2022-12-07T13:49:46;10.23;;;8.57;;
35364;SDS011;21464;48.112;11.530;2022-12-07T13:52:17;8.90;;;8.00;;
35364;SDS011;21464;48.112;11.530;2022-12-07T13:54:45;8.67;;;7.77;;
35364;SDS011;21464;48.112;11.530;2022-12-07T13:57:20;8.47;;;7.47;;
35364;SDS011;21464;48.112;11.530;2022-12-07T13:59:48;9.50;;;7.23;;
35364;SDS011;21464;48.112;11.530;2022-12-07T14:02:27;7.90;;;6.80;;
35364;SDS011;21464;48.112;11.530;2022-12-07T14:12:55;7.40;;;6.70;;
35364;SDS011;21464;48.112;11.530;2022-12-07T14:15:22;9.30;;;6.67;;
35364;SDS011;21464;48.112;11.530;2022-12-07T14:17:52;8.00;;;6.70;;
35364;SDS011;21464;48.112;11.530;2022-12-07T14:20:29;8.90;;;6.57;;
35364;SDS011;21464;48.112;11.530;2022-12-07T14:22:59;9.60;;;7.60;;
35364;SDS011;21464;48.112;11.530;2022-12-07T14:25:26;12.37;;;7.27;;
35364;SDS011;21464;48.112;11.530;2022-12-07T14:27:59;9.67;;;7.77;;
35364;SDS011;21464;48.112;11.530;2022-12-07T14:30:30;11.37;;;6.40;;
35364;SDS011;21464;48.112;11.530;2022-12-07T14:33:02;10.17;;;6.17;;
35364;SDS011;21464;48.112;11.530;2022-12-07T14:35:29;6.03;;;4.87;;
35364;SDS011;21464;48.112;11.530;2022-12-07T14:37:56;7.30;;;5.27;;
35364;SDS011;21464;48.112;11.530;2022-12-07T14:40:24;9.80;;;6.03;;
35364;SDS011;21464;48.112;11.530;2022-12-07T14:43:14;8.70;;;5.20;;
35364;SDS011;21464;48.112;11.530;2022-12-07T14:45:40;8.07;;;6.37;;
35364;SDS011;21464;48.112;11.530;2022-12-07T14:48:07;8.83;;;6.27;;
35364;SDS011;21464;48.112;11.530;2022-12-07T14:50:38;6.13;;;4.60;;
35364;SDS011;21464;48.112;11.530;2022-12-07T14:53:28;10.13;;;7.57;;
35364;SDS011;21464;48.112;11.530;2022-12-07T14:55:56;6.97;;;5.50;;
35364;SDS011;21464;48.112;11.530;2022-12-07T14:58:22;12.27;;;8.00;;
35364;SDS011;21464;48.112;11.530;2022-12-07T15:00:48;10.17;;;7.60;;
35364;SDS011;21464;48.112;11.530;2022-12-07T15:03:14;9.43;;;7.60;;
35364;SDS011;21464;48.112;11.530;2022-12-07T15:05:40;10.23;;;7.73;;
35364;SDS011;21464;48.112;11.530;2022-12-07T15:08:12;11.57;;;8.90;;
35364;SDS011;21464;48.112;11.530;2022-12-07T15:10:38;13.10;;;9.37;;
35364;SDS011;21464;48.112;11.530;2022-12-07T15:13:06;15.67;;;10.60;;
35364;SDS011;21464;48.112;11.530;2022-12-07T15:16:01;11.10;;;9.03;;
35364;SDS011;21464;48.112;11.530;2022-12-07T15:18:28;16.53;;;11.43;;
35364;SDS011;21464;48.112;11.530;2022-12-07T15:20:54;12.40;;;9.30;;
35364;SDS011;21464;48.112;11.530;2022-12-07T15:23:20;11.77;;;9.47;;
35364;SDS011;21464;48.112;11.530;2022-12-07T15:25:47;13.90;;;10.10;;
35364;SDS011;21464;48.112;11.530;2022-12-07T15:28:14;14.80;;;10.33;;
35364;SDS011;21464;48.112;11.530;2022-12-07T15:30:41;15.23;;;10.50;;
35364;SDS011;21464;48.112;11.530;2022-12-07T15:33:11;13.53;;;10.60;;
35364;SDS011;21464;48.112;11.530;2022-12-07T15:35:41;13.50;;;9.80;;
35364;SDS011;21464;48.112;11.530;2022-12-07T15:38:08;12.13;;;9.73;;
35364;SDS011;21464;48.112;11.530;2022-12-07T15:40:35;12.50;;;10.40;;
35364;SDS011;21464;48.112;11.530;2022-12-07T15:43:02;15.00;;;10.20;;
35364;SDS011;21464;48.112;11.530;2022-12-07T15:45:28;13.47;;;10.43;;
35364;SDS011;21464;48.112;11.530;2022-12-07T15:47:54;14.87;;;11.10;;
35364;SDS011;21464;48.112;11.530;2022-12-07T15:50:21;14.40;;;10.73;;
35364;SDS011;21464;48.112;11.530;2022-12-07T15:52:48;15.70;;;11.67;;
35364;SDS011;21464;48.112;11.530;2022-12-07T15:55:14;15.67;;;11.00;;
35364;SDS011;21464;48.112;11.530;2022-12-07T15:57:40;15.27;;;11.80;;
35364;SDS011;21464;48.112;11.530;2022-12-07T16:00:07;15.17;;;11.43;;
35364;SDS011;21464;48.112;11.530;2022-12-07T16:02:36;14.43;;;10.67;;
35364;SDS011;21464;48.112;11.530;2022-12-07T16:05:02;15.53;;;12.10;;
35364;SDS011;21464;48.112;11.530;2022-12-07T16:07:28;17.87;;;12.03;;
35364;SDS011;21464;48.112;11.530;2022-12-07T16:09:55;13.27;;;11.60;;
35364;SDS011;21464;48.112;11.530;2022-12-07T16:12:21;13.70;;;10.93;;
35364;SDS011;21464;48.112;11.530;2022-12-07T16:14:47;19.73;;;13.70;;
35364;SDS011;21464;48.112;11.530;2022-12-07T16:17:13;16.23;;;12.17;;
35364;SDS011;21464;48.112;11.530;2022-12-07T16:19:40;16.73;;;12.97;;
35364;SDS011;21464;48.112;11.530;2022-12-07T16:22:06;20.27;;;13.87;;
35364;SDS011;21464;48.112;11.530;2022-12-07T16:24:32;15.67;;;13.00;;
35364;SDS011;21464;48.112;11.530;2022-12-07T16:26:58;17.63;;;13.60;;
35364;SDS011;21464;48.112;11.530;2022-12-07T16:29:25;13.90;;;11.57;;
35364;SDS011;21464;48.112;11.530;2022-12-07T16:31:51;17.77;;;12.97;;
35364;SDS011;21464;48.112;11.530;2022-12-07T16:34:18;17.13;;;12.80;;
35364;SDS011;21464;48.112;11.530;2022-12-07T16:36:44;20.40;;;11.90;;
35364;SDS011;21464;48.112;11.530;2022-12-07T16:39:11;14.90;;;11.77;;
35364;SDS011;21464;48.112;11.530;2022-12-07T16:41:37;15.37;;;12.00;;
35364;SDS011;21464;48.112;11.530;2022-12-07T16:44:04;15.60;;;12.77;;
35364;SDS011;21464;48.112;11.530;2022-12-07T16:46:32;13.37;;;11.03;;
35364;SDS011;21464;48.112;11.530;2022-12-07T16:48:59;11.97;;;10.30;;
35364;SDS011;21464;48.112;11.530;2022-12-07T16:51:25;13.47;;;10.20;;
35364;SDS011;21464;48.112;11.530;2022-12-07T16:53:52;14.10;;;10.57;;
35364;SDS011;21464;48.112;11.530;2022-12-07T16:56:19;13.03;;;9.93;;
35364;SDS011;21464;48.112;11.530;2022-12-07T16:58:46;13.97;;;10.97;;